Time;durP1;ratioP1;P1;durP2;ratioP2;P2;SDS_P1;SDS_P2;PMS_P1;PMS_P2;Temp;Humidity;BMP_temperature;BMP_pressure;BME280_temperature;BME280_humidity;BME280_pressure;Samples;Min_cycle;Max_cycle;Signal;HPM_P1;HPM_P2
2021/12/23 00:00:46;;;;;;;11.93;6.60;;;;;;;;;;2098781;28;20131;-48
2021/12/23 00:01:47;;;;;;;12.98;6.63;;;;;;;;;;2107775;28;20463;-49
2021/12/23 00:02:48;;;;;;;11.35;5.70;;;;;;;;;;2106362;28;20079;-51
2021/12/23 00:03:50;;;;;;;14.90;6.95;;;;;;;;;;2105045;28;20044;-49
2021/12/23 00:04:51;;;;;;;12.98;6.75;;;;;;;;;;2105459;28;20127;-48
2021/12/23 00:05:53;;;;;;;15.27;7.23;;;;;;;;;;2106477;28;20104;-48
2021/12/23 00:06:54;;;;;;;15.63;7.63;;;;;;;;;;2104870;28;20070;-48
2021/12/23 00:07:55;;;;;;;22.88;8.70;;;;;;;;;;2105142;28;20288;-48
2021/12/23 00:08:59;;;;;;;20.13;7.78;;;;;;;;;;2106422;28;20043;-48
2021/12/23 00:10:07;;;;;;;17.98;7.88;;;;;;;;;;2104077;28;20151;-48
2021/12/23 00:11:08;;;;;;;17.45;8.13;;;;;;;;;;2099369;28;20368;-49
2021/12/23 00:12:09;;;;;;;21.88;8.60;;;;;;;;;;2097988;28;20281;-48
2021/12/23 00:13:11;;;;;;;15.45;7.97;;;;;;;;;;2102431;28;20047;-48
2021/12/23 00:14:11;;;;;;;18.05;7.85;;;;;;;;;;2106212;28;20520;-49
2021/12/23 00:15:24;;;;;;;17.30;7.00;;;;;;;;;;2106349;28;20052;-48
2021/12/23 00:16:40;;;;;;;15.68;7.72;;;;;;;;;;2104960;28;20093;-48
2021/12/23 00:18:01;;;;;;;14.32;6.85;;;;;;;;;;2106347;28;20048;-48
2021/12/23 00:19:15;;;;;;;9.63;5.20;;;;;;;;;;2106795;28;20277;-48
2021/12/23 00:24:14;;;;;;;13.43;6.28;;;;;;;;;;2114704;28;20291;-50
2021/12/23 00:25:15;;;;;;;12.32;6.10;;;;;;;;;;2107190;28;20320;-48
2021/12/23 00:26:16;;;;;;;12.32;6.65;;;;;;;;;;2097773;28;20049;-50
2021/12/23 00:27:17;;;;;;;12.80;5.78;;;;;;;;;;2098030;28;20055;-48
2021/12/23 00:28:18;;;;;;;15.37;7.03;;;;;;;;;;2105765;28;20400;-49
2021/12/23 00:29:19;;;;;;;15.35;6.85;;;;;;;;;;2097937;28;20052;-49
2021/12/23 00:30:20;;;;;;;15.32;7.00;;;;;;;;;;2097906;28;20520;-49
2021/12/23 00:31:21;;;;;;;9.23;5.45;;;;;;;;;;2104290;28;20044;-48
2021/12/23 00:32:22;;;;;;;12.43;6.43;;;;;;;;;;2099864;28;20052;-48
2021/12/23 00:33:23;;;;;;;12.87;6.50;;;;;;;;;;2098521;28;20051;-48
2021/12/23 00:34:26;;;;;;;9.60;5.10;;;;;;;;;;2102856;28;20143;-49
2021/12/23 00:35:26;;;;;;;11.15;5.78;;;;;;;;;;2097753;28;20417;-47
2021/12/23 00:36:28;;;;;;;13.07;5.93;;;;;;;;;;2098476;28;20284;-48
2021/12/23 00:37:36;;;;;;;;;;;;;;;;;;2105294;28;20451;-47
2021/12/23 00:38:43;;;;;;;9.35;5.28;;;;;;;;;;2097973;28;20015;-48
2021/12/23 00:39:45;;;;;;;10.60;6.03;;;;;;;;;;2101323;28;20304;-48
2021/12/23 00:40:46;;;;;;;;;;;;;;;;;;2099156;28;20368;-49
2021/12/23 00:41:47;;;;;;;10.30;5.55;;;;;;;;;;2097662;28;19927;-49
2021/12/23 00:42:48;;;;;;;11.02;4.80;;;;;;;;;;2101126;28;20040;-48
2021/12/23 00:43:49;;;;;;;9.97;4.83;;;;;;;;;;2114059;28;20092;-48
2021/12/23 00:44:50;;;;;;;10.98;5.85;;;;;;;;;;2114509;28;20563;-47
2021/12/23 00:45:51;;;;;;;12.52;5.60;;;;;;;;;;2105943;28;20096;-48
2021/12/23 00:46:52;;;;;;;9.43;5.35;;;;;;;;;;2105801;28;20036;-48
2021/12/23 00:47:53;;;;;;;12.97;6.70;;;;;;;;;;2106261;28;20073;-48
2021/12/23 00:48:54;;;;;;;10.80;5.75;;;;;;;;;;2103743;28;20050;-48
2021/12/23 00:49:55;;;;;;;14.60;5.93;;;;;;;;;;2097911;28;20063;-48
2021/12/23 00:50:57;;;;;;;11.98;6.15;;;;;;;;;;2097788;28;20192;-47
2021/12/23 00:51:58;;;;;;;10.25;5.18;;;;;;;;;;2102871;28;20135;-49
2021/12/23 00:53:05;;;;;;;13.13;5.78;;;;;;;;;;2106020;28;20568;-50
2021/12/23 00:54:06;;;;;;;11.07;6.05;;;;;;;;;;2105867;28;20127;-49
2021/12/23 00:55:08;;;;;;;11.82;5.18;;;;;;;;;;2104081;28;20355;-49
2021/12/23 00:56:11;;;;;;;11.88;6.25;;;;;;;;;;2105955;28;20615;-48
2021/12/23 00:57:12;;;;;;;10.52;5.82;;;;;;;;;;2105023;28;20402;-48
2021/12/23 00:58:13;;;;;;;10.02;5.32;;;;;;;;;;2104620;28;20285;-48
2021/12/23 00:59:14;;;;;;;12.60;6.13;;;;;;;;;;2097876;28;20436;-48
2021/12/23 01:00:16;;;;;;;12.65;6.00;;;;;;;;;;2098158;28;20123;-51
2021/12/23 01:01:17;;;;;;;10.10;5.88;;;;;;;;;;2101495;28;20151;-48
2021/12/23 01:02:18;;;;;;;13.70;5.88;;;;;;;;;;2097701;28;20079;-48
2021/12/23 01:03:19;;;;;;;12.05;5.90;;;;;;;;;;2100054;28;20044;-48
2021/12/23 01:04:20;;;;;;;10.23;5.50;;;;;;;;;;2110707;28;20043;-49
2021/12/23 01:05:22;;;;;;;9.55;5.45;;;;;;;;;;2114638;28;20043;-48
2021/12/23 01:06:23;;;;;;;12.90;6.03;;;;;;;;;;2107926;28;20166;-49
2021/12/23 01:07:24;;;;;;;13.18;6.32;;;;;;;;;;2111705;28;20173;-49
2021/12/23 01:08:25;;;;;;;9.70;5.57;;;;;;;;;;2114561;28;20518;-48
2021/12/23 01:09:26;;;;;;;11.38;5.95;;;;;;;;;;2108206;28;20462;-48
2021/12/23 01:10:27;;;;;;;12.17;6.00;;;;;;;;;;2100053;28;20056;-48
2021/12/23 01:11:29;;;;;;;12.10;5.93;;;;;;;;;;2097451;28;20484;-48
2021/12/23 01:12:37;;;;;;;11.63;6.53;;;;;;;;;;2101273;28;20086;-49
2021/12/23 01:13:38;;;;;;;12.50;6.13;;;;;;;;;;2105759;28;20160;-48
2021/12/23 01:14:43;;;;;;;15.57;7.25;;;;;;;;;;2105983;28;20281;-48
2021/12/23 01:16:02;;;;;;;15.40;7.70;;;;;;;;;;2105785;28;20130;-49
2021/12/23 01:17:30;;;;;;;13.65;6.90;;;;;;;;;;2097692;28;20383;-49
2021/12/23 01:18:33;;;;;;;12.40;6.68;;;;;;;;;;2105012;28;20298;-48
2021/12/23 01:19:39;;;;;;;16.42;7.05;;;;;;;;;;2105868;28;20368;-49
2021/12/23 01:20:50;;;;;;;15.05;7.30;;;;;;;;;;2105869;28;20368;-48
2021/12/23 01:21:51;;;;;;;14.10;7.10;;;;;;;;;;2104425;28;20360;-48
2021/12/23 01:22:53;;;;;;;14.27;6.55;;;;;;;;;;2097488;28;20681;-48
2021/12/23 01:23:56;;;;;;;14.10;7.35;;;;;;;;;;2098248;28;20101;-48
2021/12/23 01:24:57;;;;;;;14.10;6.90;;;;;;;;;;2104999;28;20135;-48
2021/12/23 01:25:58;;;;;;;13.07;6.18;;;;;;;;;;2105823;28;20284;-50
2021/12/23 01:26:59;;;;;;;12.73;6.25;;;;;;;;;;2104072;28;20080;-49
2021/12/23 01:28:00;;;;;;;10.73;5.83;;;;;;;;;;2104939;28;20044;-48
2021/12/23 01:29:02;;;;;;;10.45;5.78;;;;;;;;;;2105826;28;20135;-48
2021/12/23 01:30:04;;;;;;;11.32;6.10;;;;;;;;;;2104873;28;20055;-48
2021/12/23 01:31:05;;;;;;;11.93;6.05;;;;;;;;;;2104353;28;20329;-48
2021/12/23 01:32:07;;;;;;;10.27;5.75;;;;;;;;;;2101675;28;20525;-49
2021/12/23 01:33:09;;;;;;;9.80;5.25;;;;;;;;;;2098972;28;20512;-48
2021/12/23 01:34:10;;;;;;;11.73;6.75;;;;;;;;;;2104660;28;20378;-49
2021/12/23 01:35:12;;;;;;;11.18;5.82;;;;;;;;;;2105840;28;20288;-48
2021/12/23 01:36:13;;;;;;;13.45;6.10;;;;;;;;;;2107453;28;20472;-49
2021/12/23 01:37:14;;;;;;;10.82;6.15;;;;;;;;;;2098462;28;20048;-49
2021/12/23 01:38:15;;;;;;;9.73;4.88;;;;;;;;;;2097552;28;20128;-47
2021/12/23 01:39:16;;;;;;;7.80;4.93;;;;;;;;;;2102125;28;20131;-49
2021/12/23 01:40:18;;;;;;;13.13;5.82;;;;;;;;;;2114019;28;20393;-49
2021/12/23 01:41:21;;;;;;;12.35;5.72;;;;;;;;;;2114290;28;20052;-48
2021/12/23 01:42:22;;;;;;;;;;;;;;;;;;2104165;28;20368;-48
2021/12/23 01:43:23;;;;;;;9.75;5.03;;;;;;;;;;2097395;28;19920;-48
2021/12/23 01:44:24;;;;;;;10.27;5.57;;;;;;;;;;2097539;28;20059;-48
2021/12/23 01:45:26;;;;;;;11.32;4.97;;;;;;;;;;2105197;28;20482;-48
2021/12/23 01:46:27;;;;;;;11.15;5.22;;;;;;;;;;2097231;28;20382;-49
2021/12/23 01:47:29;;;;;;;11.50;5.55;;;;;;;;;;2097419;28;20315;-48
2021/12/23 01:48:30;;;;;;;;;;;;;;;;;;2104383;28;20048;-48
2021/12/23 01:49:31;;;;;;;10.35;4.80;;;;;;;;;;2105677;28;19920;-49
2021/12/23 01:50:37;;;;;;;10.55;5.90;;;;;;;;;;2105430;28;20108;-48
2021/12/23 01:51:38;;;;;;;10.07;5.75;;;;;;;;;;2102355;28;20182;-48
2021/12/23 01:52:39;;;;;;;11.00;5.30;;;;;;;;;;2098974;28;20364;-48
2021/12/23 01:53:41;;;;;;;9.13;5.20;;;;;;;;;;2099769;28;20518;-48
2021/12/23 01:54:42;;;;;;;10.15;5.22;;;;;;;;;;2106681;28;20330;-49
2021/12/23 01:55:43;;;;;;;9.00;5.23;;;;;;;;;;2107347;28;20052;-48
2021/12/23 01:56:44;;;;;;;10.73;5.38;;;;;;;;;;2105112;28;20368;-48
2021/12/23 01:57:45;;;;;;;10.40;5.10;;;;;;;;;;2100826;28;20401;-48
2021/12/23 01:58:46;;;;;;;9.07;4.35;;;;;;;;;;2098876;28;20490;-48
2021/12/23 01:59:47;;;;;;;12.07;5.63;;;;;;;;;;2102799;28;20084;-48
2021/12/23 02:00:50;;;;;;;10.60;5.57;;;;;;;;;;2108211;28;20398;-48
2021/12/23 02:01:51;;;;;;;10.48;5.60;;;;;;;;;;2107202;28;20531;-49
2021/12/23 02:02:52;;;;;;;8.60;4.80;;;;;;;;;;2105576;28;20619;-47
2021/12/23 02:03:54;;;;;;;9.82;6.32;;;;;;;;;;2106570;28;20546;-48
2021/12/23 02:04:55;;;;;;;11.70;5.10;;;;;;;;;;2107251;28;20081;-48
2021/12/23 02:05:56;;;;;;;11.63;5.30;;;;;;;;;;2106958;28;20462;-48
2021/12/23 02:07:05;;;;;;;9.50;5.20;;;;;;;;;;2107245;28;20044;-49
2021/12/23 02:08:06;;;;;;;13.20;5.38;;;;;;;;;;2107296;28;20306;-48
2021/12/23 02:09:07;;;;;;;13.73;6.15;;;;;;;;;;2108077;28;20075;-49
2021/12/23 02:10:09;;;;;;;11.23;5.95;;;;;;;;;;2107095;28;20117;-49
2021/12/23 02:11:11;;;;;;;10.45;5.35;;;;;;;;;;2106530;28;20435;-48
2021/12/23 02:12:12;;;;;;;10.77;5.75;;;;;;;;;;2105140;28;20044;-48
2021/12/23 02:13:13;;;;;;;9.43;5.32;;;;;;;;;;2107222;28;20500;-48
2021/12/23 02:14:13;;;;;;;10.75;5.97;;;;;;;;;;2106671;28;20055;-48
2021/12/23 02:15:15;;;;;;;10.10;5.68;;;;;;;;;;2104726;28;20051;-48
2021/12/23 02:16:16;;;;;;;11.57;5.35;;;;;;;;;;2098679;28;20059;-48
2021/12/23 02:17:17;;;;;;;12.40;5.55;;;;;;;;;;2099625;28;20055;-48
2021/12/23 02:18:19;;;;;;;12.03;5.30;;;;;;;;;;2110225;28;20104;-48
2021/12/23 02:19:20;;;;;;;11.15;5.38;;;;;;;;;;2115641;28;20066;-49
2021/12/23 02:20:23;;;;;;;9.90;4.78;;;;;;;;;;2110959;28;20282;-48
2021/12/23 02:21:24;;;;;;;10.57;5.95;;;;;;;;;;2107185;28;20131;-48
2021/12/23 02:22:25;;;;;;;10.32;5.45;;;;;;;;;;2107123;28;20410;-48
2021/12/23 02:23:26;;;;;;;11.40;5.55;;;;;;;;;;2106114;28;20446;-48
2021/12/23 02:24:27;;;;;;;12.38;5.50;;;;;;;;;;2113096;28;20131;-48
2021/12/23 02:25:28;;;;;;;10.67;5.60;;;;;;;;;;2115605;28;20060;-48
2021/12/23 02:26:29;;;;;;;11.65;5.07;;;;;;;;;;2108956;28;20109;-48
2021/12/23 02:27:30;;;;;;;11.37;6.17;;;;;;;;;;2100884;28;20447;-48
2021/12/23 02:28:32;;;;;;;12.75;5.88;;;;;;;;;;2098547;28;20049;-49
2021/12/23 02:29:33;;;;;;;9.77;5.53;;;;;;;;;;2101474;28;20052;-49
2021/12/23 02:30:36;;;;;;;10.27;5.10;;;;;;;;;;2114482;28;20058;-49
2021/12/23 02:31:37;;;;;;;11.63;5.75;;;;;;;;;;2115411;28;20055;-48
2021/12/23 02:32:39;;;;;;;11.52;6.65;;;;;;;;;;2103299;28;20279;-48
2021/12/23 02:33:39;;;;;;;14.32;6.88;;;;;;;;;;2107008;28;20048;-48
2021/12/23 02:34:41;;;;;;;11.73;5.77;;;;;;;;;;2106944;28;20050;-49
2021/12/23 02:35:42;;;;;;;9.95;5.90;;;;;;;;;;2105381;28;20129;-48
2021/12/23 02:36:47;;;;;;;12.07;5.47;;;;;;;;;;2098731;28;20053;-48
2021/12/23 02:37:49;;;;;;;12.75;5.57;;;;;;;;;;2098826;28;20044;-48
2021/12/23 02:38:50;;;;;;;13.38;6.28;;;;;;;;;;2104352;28;20330;-48
2021/12/23 02:39:51;;;;;;;12.45;6.82;;;;;;;;;;2107053;28;20584;-48
2021/12/23 02:40:52;;;;;;;10.90;5.72;;;;;;;;;;2106503;28;20075;-48
2021/12/23 02:41:55;;;;;;;11.20;5.65;;;;;;;;;;2104999;28;20557;-48
2021/12/23 02:42:57;;;;;;;10.30;5.47;;;;;;;;;;2106942;28;20629;-48
2021/12/23 02:43:58;;;;;;;10.57;5.85;;;;;;;;;;2106114;28;20048;-48
2021/12/23 02:45:01;;;;;;;10.10;5.00;;;;;;;;;;2109685;28;20046;-48
2021/12/23 02:46:03;;;;;;;13.18;5.75;;;;;;;;;;2115301;28;20759;-47
2021/12/23 02:47:04;;;;;;;;;;;;;;;;;;2111174;28;20614;-48
2021/12/23 02:48:09;;;;;;;11.60;4.78;;;;;;;;;;2106189;28;19973;-48
2021/12/23 02:49:11;;;;;;;9.27;4.90;;;;;;;;;;2106815;28;20420;-49
2021/12/23 02:50:12;;;;;;;14.23;6.22;;;;;;;;;;2105835;28;20288;-49
2021/12/23 02:51:15;;;;;;;7.88;4.93;;;;;;;;;;2105338;28;20054;-49
2021/12/23 02:52:16;;;;;;;10.05;5.28;;;;;;;;;;2106914;28;20160;-48
2021/12/23 02:53:17;;;;;;;11.30;5.85;;;;;;;;;;2104711;28;20364;-48
2021/12/23 02:54:18;;;;;;;10.88;6.22;;;;;;;;;;2114277;28;20515;-48
2021/12/23 02:55:19;;;;;;;13.13;6.15;;;;;;;;;;2115354;28;20127;-48
2021/12/23 02:56:21;;;;;;;11.70;6.15;;;;;;;;;;2107172;28;20043;-49
2021/12/23 02:57:23;;;;;;;9.80;4.75;;;;;;;;;;2113257;28;20608;-48
2021/12/23 02:58:24;;;;;;;12.48;6.10;;;;;;;;;;2115337;28;20108;-48
2021/12/23 02:59:25;;;;;;;11.45;5.30;;;;;;;;;;2109384;28;20523;-48
2021/12/23 03:00:26;;;;;;;12.10;5.50;;;;;;;;;;2106911;28;20128;-49
2021/12/23 03:01:27;;;;;;;12.75;5.72;;;;;;;;;;2106772;28;20044;-50
2021/12/23 03:02:29;;;;;;;11.95;5.68;;;;;;;;;;2106951;28;20556;-47
2021/12/23 03:03:30;;;;;;;10.55;6.20;;;;;;;;;;2098076;28;20162;-48
2021/12/23 03:04:32;;;;;;;12.70;6.57;;;;;;;;;;2098671;28;20045;-49
2021/12/23 03:05:32;;;;;;;;;;;;;;;;;;2104752;28;20048;-49
2021/12/23 03:06:34;;;;;;;13.82;5.75;;;;;;;;;;2106895;28;19920;-50
2021/12/23 03:07:35;;;;;;;;;;;;;;;;;;2106919;28;20131;-49
2021/12/23 03:08:37;;;;;;;11.48;4.25;;;;;;;;;;2105040;28;19920;-49
2021/12/23 03:09:37;;;;;;;;;;;;;;;;;;2098993;28;20085;-48
2021/12/23 03:10:39;;;;;;;10.98;4.93;;;;;;;;;;2097876;28;19921;-48
2021/12/23 03:11:40;;;;;;;11.00;4.40;;;;;;;;;;2105217;28;20071;-49
2021/12/23 03:12:41;;;;;;;9.43;4.88;;;;;;;;;;2106905;28;20059;-48
2021/12/23 03:13:42;;;;;;;11.10;5.22;;;;;;;;;;2104780;28;20048;-48
2021/12/23 03:14:43;;;;;;;13.48;5.38;;;;;;;;;;2113485;28;20039;-49
2021/12/23 03:15:45;;;;;;;8.68;4.95;;;;;;;;;;2115264;28;20069;-49
2021/12/23 03:16:47;;;;;;;11.48;6.03;;;;;;;;;;2108434;28;20142;-48
2021/12/23 03:17:48;;;;;;;11.70;5.10;;;;;;;;;;2106132;28;20036;-48
2021/12/23 03:18:49;;;;;;;12.40;5.68;;;;;;;;;;2106915;28;20348;-48
2021/12/23 03:19:50;;;;;;;14.45;5.97;;;;;;;;;;2104231;28;20071;-49
2021/12/23 03:20:51;;;;;;;11.80;5.80;;;;;;;;;;2106737;28;20040;-46
2021/12/23 03:21:53;;;;;;;10.57;5.95;;;;;;;;;;2106386;28;20044;-48
2021/12/23 03:22:54;;;;;;;11.75;5.93;;;;;;;;;;2107532;28;20047;-49
2021/12/23 03:23:55;;;;;;;11.10;5.60;;;;;;;;;;2106571;28;20040;-48
2021/12/23 03:24:56;;;;;;;14.10;6.30;;;;;;;;;;2106649;28;20040;-48
2021/12/23 03:25:57;;;;;;;10.70;5.60;;;;;;;;;;2105896;28;20087;-48
2021/12/23 03:26:58;;;;;;;10.05;5.13;;;;;;;;;;2114932;28;20308;-48
2021/12/23 03:27:59;;;;;;;13.63;6.53;;;;;;;;;;2115102;28;20050;-49
2021/12/23 03:29:00;;;;;;;12.85;6.07;;;;;;;;;;2104085;28;20087;-49
2021/12/23 03:30:01;;;;;;;14.57;7.10;;;;;;;;;;2106682;28;20408;-48
2021/12/23 03:31:03;;;;;;;13.88;5.90;;;;;;;;;;2106098;28;20063;-48
2021/12/23 03:32:05;;;;;;;16.23;6.13;;;;;;;;;;2104362;28;20485;-49
2021/12/23 03:33:05;;;;;;;14.40;7.88;;;;;;;;;;2115067;28;20051;-48
2021/12/23 03:34:07;;;;;;;14.13;6.93;;;;;;;;;;2113351;28;20488;-48
2021/12/23 03:35:08;;;;;;;13.35;6.55;;;;;;;;;;2101926;28;20525;-49
2021/12/23 03:36:09;;;;;;;15.95;6.80;;;;;;;;;;2098183;28;20139;-49
2021/12/23 03:37:10;;;;;;;13.38;6.93;;;;;;;;;;2098870;28;20548;-49
2021/12/23 03:38:12;;;;;;;13.20;6.95;;;;;;;;;;2106707;28;20493;-49
2021/12/23 03:39:13;;;;;;;13.40;7.22;;;;;;;;;;2106589;28;20469;-48
2021/12/23 03:40:14;;;;;;;12.65;6.55;;;;;;;;;;2104506;28;20404;-48
2021/12/23 03:41:16;;;;;;;16.75;7.68;;;;;;;;;;2101758;28;20044;-48
2021/12/23 03:42:16;;;;;;;15.85;7.22;;;;;;;;;;2098168;28;20052;-49
2021/12/23 03:43:18;;;;;;;14.80;7.23;;;;;;;;;;2100984;28;20400;-48
2021/12/23 03:44:19;;;;;;;12.63;7.32;;;;;;;;;;2105156;28;20048;-48
2021/12/23 03:45:20;;;;;;;15.73;8.15;;;;;;;;;;2106539;28;20043;-48
2021/12/23 03:46:21;;;;;;;14.63;7.28;;;;;;;;;;2105357;28;20470;-48
2021/12/23 03:47:22;;;;;;;14.90;6.75;;;;;;;;;;2105148;28;20051;-48
2021/12/23 03:48:23;;;;;;;18.90;7.10;;;;;;;;;;2106462;28;20131;-48
2021/12/23 03:49:24;;;;;;;17.23;6.83;;;;;;;;;;2104220;28;20083;-48
2021/12/23 03:50:26;;;;;;;16.88;6.85;;;;;;;;;;2114185;28;20134;-49
2021/12/23 03:51:27;;;;;;;16.05;6.85;;;;;;;;;;2114723;28;20040;-48
2021/12/23 03:52:29;;;;;;;13.50;6.80;;;;;;;;;;2106714;28;20477;-48
2021/12/23 03:53:33;;;;;;;15.63;6.78;;;;;;;;;;2114720;28;20048;-48
2021/12/23 03:54:34;;;;;;;15.00;6.70;;;;;;;;;;2114843;28;20284;-49
2021/12/23 03:55:35;;;;;;;17.92;7.28;;;;;;;;;;2108427;28;20134;-50
2021/12/23 03:56:36;;;;;;;15.30;6.47;;;;;;;;;;2106484;28;20691;-47
2021/12/23 03:57:37;;;;;;;16.42;7.32;;;;;;;;;;2106413;28;20138;-49
2021/12/23 03:58:38;;;;;;;14.70;7.28;;;;;;;;;;2103745;28;20044;-48
2021/12/23 03:59:39;;;;;;;18.80;7.93;;;;;;;;;;2106520;28;20071;-48
2021/12/23 04:00:40;;;;;;;16.67;7.53;;;;;;;;;;2106000;28;20096;-49
2021/12/23 04:01:41;;;;;;;15.95;7.82;;;;;;;;;;2104382;28;20143;-48
2021/12/23 04:02:43;;;;;;;15.82;6.95;;;;;;;;;;2106346;28;20056;-48
2021/12/23 04:03:44;;;;;;;11.68;6.70;;;;;;;;;;2106005;28;20044;-48
2021/12/23 04:04:45;;;;;;;14.90;6.93;;;;;;;;;;2104485;28;20110;-48
2021/12/23 04:05:46;;;;;;;16.25;6.75;;;;;;;;;;2106444;28;20115;-48
2021/12/23 04:06:47;;;;;;;11.97;6.20;;;;;;;;;;2105428;28;20052;-48
2021/12/23 04:07:49;;;;;;;13.18;7.15;;;;;;;;;;2104966;28;20119;-49
2021/12/23 04:08:50;;;;;;;10.90;6.15;;;;;;;;;;2106319;28;20044;-48
2021/12/23 04:09:51;;;;;;;17.63;7.88;;;;;;;;;;2104525;28;20088;-48
2021/12/23 04:10:52;;;;;;;13.53;7.47;;;;;;;;;;2100745;28;20049;-48
2021/12/23 04:11:53;;;;;;;15.02;6.53;;;;;;;;;;2098047;28;20098;-49
2021/12/23 04:12:54;;;;;;;12.77;6.30;;;;;;;;;;2099112;28;20408;-48
2021/12/23 04:13:55;;;;;;;11.47;6.20;;;;;;;;;;2100983;28;20048;-49
2021/12/23 04:14:56;;;;;;;12.02;5.75;;;;;;;;;;2097932;28;20119;-48
2021/12/23 04:15:57;;;;;;;10.30;5.13;;;;;;;;;;2100865;28;20092;-47
2021/12/23 04:16:58;;;;;;;12.70;6.45;;;;;;;;;;2104881;28;20048;-48
2021/12/23 04:17:59;;;;;;;13.10;6.87;;;;;;;;;;2106468;28;20188;-48
2021/12/23 04:19:05;;;;;;;14.18;5.97;;;;;;;;;;2106314;28;20041;-47
2021/12/23 04:20:13;;;;;;;11.25;6.40;;;;;;;;;;2099635;28;20079;-48
2021/12/23 04:21:14;;;;;;;15.98;7.07;;;;;;;;;;2097834;28;20821;-48
2021/12/23 04:22:15;;;;;;;12.27;5.05;;;;;;;;;;2105829;28;20276;-48
2021/12/23 04:23:16;;;;;;;11.55;6.13;;;;;;;;;;2097866;28;20055;-48
2021/12/23 04:24:18;;;;;;;12.35;6.50;;;;;;;;;;2098024;28;20194;-48
2021/12/23 04:25:20;;;;;;;14.70;5.05;;;;;;;;;;2103086;28;20089;-50
2021/12/23 04:26:21;;;;;;;18.88;6.63;;;;;;;;;;2106344;28;20134;-50
2021/12/23 04:27:22;;;;;;;14.75;5.97;;;;;;;;;;2105652;28;20316;-48
2021/12/23 04:28:23;;;;;;;15.90;6.87;;;;;;;;;;2105010;28;20274;-48
2021/12/23 04:29:24;;;;;;;12.13;6.03;;;;;;;;;;2097816;28;20045;-48
2021/12/23 04:30:25;;;;;;;14.70;6.53;;;;;;;;;;2098135;28;20051;-49
2021/12/23 04:31:27;;;;;;;12.05;5.55;;;;;;;;;;2105096;28;20048;-47
2021/12/23 04:32:27;;;;;;;14.57;6.28;;;;;;;;;;2096490;28;20040;-47
2021/12/23 04:33:28;;;;;;;6.53;4.13;;;;;;;;;;2098693;28;20055;-49
2021/12/23 04:34:29;;;;;;;11.40;5.75;;;;;;;;;;2105899;28;20036;-49
2021/12/23 04:35:30;;;;;;;10.47;4.43;;;;;;;;;;2106317;28;20485;-49
2021/12/23 04:36:32;;;;;;;12.57;5.85;;;;;;;;;;2104517;28;20123;-48
2021/12/23 04:37:33;;;;;;;13.98;5.88;;;;;;;;;;2110166;28;20092;-48
2021/12/23 04:38:35;;;;;;;11.27;5.32;;;;;;;;;;2114590;28;20044;-49
2021/12/23 04:39:35;;;;;;;13.40;6.03;;;;;;;;;;2109538;28;20047;-48
2021/12/23 04:40:37;;;;;;;10.47;5.97;;;;;;;;;;2111495;28;20554;-48
2021/12/23 04:41:38;;;;;;;14.73;6.50;;;;;;;;;;2114586;28;20134;-48
2021/12/23 04:42:39;;;;;;;10.35;5.55;;;;;;;;;;2109621;28;20139;-48
2021/12/23 04:43:41;;;;;;;11.82;6.03;;;;;;;;;;2104822;28;20492;-48
2021/12/23 04:44:41;;;;;;;14.45;5.72;;;;;;;;;;2106230;28;20386;-48
2021/12/23 04:45:43;;;;;;;15.00;6.57;;;;;;;;;;2106299;28;20097;-47
2021/12/23 04:46:44;;;;;;;13.88;6.03;;;;;;;;;;2106835;28;20131;-48
2021/12/23 04:47:45;;;;;;;16.13;6.83;;;;;;;;;;2105878;28;20055;-50
2021/12/23 04:48:47;;;;;;;12.95;5.35;;;;;;;;;;2106708;28;20371;-48
2021/12/23 04:49:48;;;;;;;16.38;7.93;;;;;;;;;;2106019;28;20126;-49
2021/12/23 04:50:49;;;;;;;13.43;6.65;;;;;;;;;;2106241;28;20291;-48
2021/12/23 04:51:50;;;;;;;15.57;6.88;;;;;;;;;;2108033;28;20134;-48
2021/12/23 04:52:51;;;;;;;14.77;6.50;;;;;;;;;;2098336;28;20493;-48
2021/12/23 04:53:53;;;;;;;15.93;7.10;;;;;;;;;;2097759;28;20392;-48
2021/12/23 04:54:54;;;;;;;17.42;7.38;;;;;;;;;;2101530;28;20040;-48
2021/12/23 04:55:55;;;;;;;12.43;6.22;;;;;;;;;;2106089;28;20131;-48
2021/12/23 04:56:56;;;;;;;14.48;6.53;;;;;;;;;;2106053;28;20048;-48
2021/12/23 04:57:57;;;;;;;14.83;7.27;;;;;;;;;;2105554;28;20560;-48
2021/12/23 04:58:58;;;;;;;12.98;6.05;;;;;;;;;;2114331;28;20126;-49
2021/12/23 04:59:59;;;;;;;15.83;7.13;;;;;;;;;;2114596;28;20091;-48
2021/12/23 05:01:03;;;;;;;17.95;6.68;;;;;;;;;;2103832;28;20640;-48
2021/12/23 05:02:04;;;;;;;14.60;6.85;;;;;;;;;;2105963;28;20153;-48
2021/12/23 05:03:05;;;;;;;14.00;7.45;;;;;;;;;;2105482;28;20822;-48
2021/12/23 05:04:07;;;;;;;16.67;7.07;;;;;;;;;;2104049;28;20516;-48
2021/12/23 05:05:12;;;;;;;13.85;7.18;;;;;;;;;;2106127;28;20093;-49
2021/12/23 05:06:13;;;;;;;14.80;6.93;;;;;;;;;;2104286;28;20757;-48
2021/12/23 05:07:14;;;;;;;18.17;7.10;;;;;;;;;;2100847;28;20059;-44
2021/12/23 05:08:16;;;;;;;14.87;7.80;;;;;;;;;;2097741;28;20040;-45
2021/12/23 05:09:17;;;;;;;14.90;6.85;;;;;;;;;;2099650;28;20127;-44
2021/12/23 05:10:19;;;;;;;12.30;5.47;;;;;;;;;;2104499;28;20138;-45
2021/12/23 05:11:20;;;;;;;8.35;4.70;;;;;;;;;;2106045;28;20058;-44
2021/12/23 05:12:21;;;;;;;8.40;4.87;;;;;;;;;;2103429;28;20737;-45
2021/12/23 05:13:22;;;;;;;10.50;5.97;;;;;;;;;;2105267;28;20052;-44
2021/12/23 05:14:23;;;;;;;13.83;7.30;;;;;;;;;;2106137;28;20139;-45
2021/12/23 05:15:24;;;;;;;15.63;6.72;;;;;;;;;;2106100;28;20050;-44
2021/12/23 05:16:25;;;;;;;14.60;6.60;;;;;;;;;;2100187;28;20056;-44
2021/12/23 05:17:26;;;;;;;13.30;6.78;;;;;;;;;;2097583;28;20382;-44
2021/12/23 05:18:27;;;;;;;12.40;7.03;;;;;;;;;;2103781;28;20054;-44
2021/12/23 05:19:28;;;;;;;20.13;6.38;;;;;;;;;;2098712;28;20654;-44
2021/12/23 05:20:29;;;;;;;16.00;7.10;;;;;;;;;;2097699;28;20053;-44
2021/12/23 05:21:30;;;;;;;16.63;6.80;;;;;;;;;;2104599;28;20122;-44
2021/12/23 05:22:31;;;;;;;10.47;5.67;;;;;;;;;;2098049;28;20055;-45
2021/12/23 05:23:32;;;;;;;16.95;6.80;;;;;;;;;;2097537;28;20124;-45
2021/12/23 05:24:34;;;;;;;12.90;6.07;;;;;;;;;;2102059;28;20123;-44
2021/12/23 05:25:35;;;;;;;16.42;7.60;;;;;;;;;;2105433;28;20085;-44
2021/12/23 05:26:36;;;;;;;12.63;6.00;;;;;;;;;;2105563;28;20415;-44
2021/12/23 05:27:38;;;;;;;18.17;6.80;;;;;;;;;;2105316;28;20051;-44
2021/12/23 05:28:39;;;;;;;15.07;6.63;;;;;;;;;;2114425;28;20473;-44
2021/12/23 05:29:40;;;;;;;12.57;5.83;;;;;;;;;;2113601;28;20039;-44
2021/12/23 05:30:41;;;;;;;16.20;7.05;;;;;;;;;;2105725;28;20040;-45
2021/12/23 05:31:42;;;;;;;30.63;12.25;;;;;;;;;;2097493;28;20063;-44
2021/12/23 05:32:43;;;;;;;58.70;20.38;;;;;;;;;;2096250;28;20148;-44
2021/12/23 05:33:44;;;;;;;49.23;17.07;;;;;;;;;;2105017;28;20059;-44
2021/12/23 05:34:45;;;;;;;59.63;22.15;;;;;;;;;;2105803;28;20044;-44
2021/12/23 05:35:46;;;;;;;54.33;17.67;;;;;;;;;;2105146;28;20176;-44
2021/12/23 05:36:47;;;;;;;45.53;17.85;;;;;;;;;;2104123;28;20124;-44
2021/12/23 05:37:48;;;;;;;45.00;18.83;;;;;;;;;;2105799;28;20153;-44
2021/12/23 05:38:49;;;;;;;37.63;15.00;;;;;;;;;;2104490;28;20055;-44
2021/12/23 05:39:51;;;;;;;26.33;10.50;;;;;;;;;;2104598;28;20040;-44
2021/12/23 05:40:52;;;;;;;32.75;13.68;;;;;;;;;;2097381;28;20505;-44
2021/12/23 05:41:53;;;;;;;34.05;12.50;;;;;;;;;;2098708;28;20096;-44
2021/12/23 05:42:54;;;;;;;22.35;11.05;;;;;;;;;;2104853;28;20131;-44
2021/12/23 05:43:56;;;;;;;32.08;12.13;;;;;;;;;;2105732;28;20044;-44
2021/12/23 05:44:57;;;;;;;33.60;11.88;;;;;;;;;;2104812;28;20568;-44
2021/12/23 05:46:00;;;;;;;33.60;14.13;;;;;;;;;;2104350;28;20090;-44
2021/12/23 05:47:01;;;;;;;39.75;15.30;;;;;;;;;;2105704;28;20052;-44
2021/12/23 05:48:02;;;;;;;33.47;14.70;;;;;;;;;;2105782;28;20273;-44
2021/12/23 05:49:03;;;;;;;33.90;13.35;;;;;;;;;;2099923;28;20049;-44
2021/12/23 05:50:06;;;;;;;44.45;17.55;;;;;;;;;;2097475;28;20055;-44
2021/12/23 05:51:07;;;;;;;;;;;;;;;;;;2101133;28;20126;-44
2021/12/23 05:52:08;;;;;;;46.25;17.33;;;;;;;;;;2104586;28;20429;-44
2021/12/23 05:53:09;;;;;;;27.83;10.87;;;;;;;;;;2105859;28;20503;-44
2021/12/23 05:54:10;;;;;;;45.22;13.75;;;;;;;;;;2103442;28;20104;-44
2021/12/23 05:55:13;;;;;;;37.23;15.07;;;;;;;;;;2097643;28;20097;-44
2021/12/23 05:56:14;;;;;;;40.58;14.20;;;;;;;;;;2097362;28;20126;-44
2021/12/23 05:57:15;;;;;;;25.20;12.13;;;;;;;;;;2102283;28;20822;-44
2021/12/23 05:58:16;;;;;;;31.60;11.57;;;;;;;;;;2105714;28;20108;-44
2021/12/23 05:59:17;;;;;;;30.73;11.65;;;;;;;;;;2105688;28;20051;-44
2021/12/23 06:00:21;;;;;;;43.57;17.27;;;;;;;;;;2103258;28;20048;-44
2021/12/23 06:01:22;;;;;;;40.60;16.55;;;;;;;;;;2105810;28;20130;-44
2021/12/23 06:02:24;;;;;;;42.30;15.52;;;;;;;;;;2105203;28;20772;-44
2021/12/23 06:03:25;;;;;;;40.00;14.63;;;;;;;;;;2104579;28;20048;-44
2021/12/23 06:04:26;;;;;;;36.65;16.42;;;;;;;;;;2097489;28;20055;-44
2021/12/23 06:05:28;;;;;;;38.37;15.53;;;;;;;;;;2098092;28;20413;-44
2021/12/23 06:06:29;;;;;;;30.08;12.98;;;;;;;;;;2100900;28;20510;-45
2021/12/23 06:07:30;;;;;;;30.43;12.93;;;;;;;;;;2097435;28;20055;-44
2021/12/23 06:08:31;;;;;;;41.13;16.00;;;;;;;;;;2098002;28;20047;-44
2021/12/23 06:09:32;;;;;;;30.10;12.47;;;;;;;;;;2104645;28;20478;-44
2021/12/23 06:10:33;;;;;;;34.13;12.85;;;;;;;;;;2097209;28;20190;-44